Bridgeport, New York
Current Conditions -  °F | °C
As of 6:54 PM on Monday 24 Nov 2014 (Local Time) from KSYR Reporting Station
Overcast Overcast  
Wind Chill: 63°   Ceiling: 6500
Heat Index: 63°   Visibility: 10mi
Dew Point: 51°   Wind: 16mph
Humidity: 65%   Direction: 270°W
Pressure: 29.46"   Gusts: NA
Location:  43.15°N, 75.97°W
Report Text: KSYR 242354Z 27014KT 10SM FEW043 BKN065 OVC085 17/11 A2946 RMK AO2 WSHFT 2325 RAB33E54 SLP971 P0000 60000 T01720106 10222 20172 53033
Loading
Personal Weather Stations






























Interactive Weather Map New forecast layout! Learn more

10-Day Weather Forecast

Advertisements
Track Severe Weather on mobile